Time;durP1;ratioP1;P1;durP2;ratioP2;P2;SDS_P1;SDS_P2;PMS_P1;PMS_P2;Temp;Humidity;BMP_temperature;BMP_pressure;BME280_temperature;BME280_humidity;BME280_pressure;Samples;Min_cycle;Max_cycle;Signal;HPM_P1;HPM_P2
2022/06/11 00:02:22;;;;;;;8.10;2.05;;;22.80;56.90;;;;;;4976271;28;20034;-83
2022/06/11 00:04:48;;;;;;;4.25;1.83;;;22.70;56.90;;;;;;4976165;28;20042;-83
2022/06/11 00:07:18;;;;;;;4.72;1.80;;;22.70;57.00;;;;;;4976080;28;20041;-82
2022/06/11 00:09:44;;;;;;;3.65;1.77;;;22.70;57.10;;;;;;4976116;28;20103;-83
2022/06/11 00:12:11;;;;;;;3.00;1.60;;;22.70;57.20;;;;;;4976402;28;20106;-83
2022/06/11 00:14:38;;;;;;;4.97;1.88;;;22.60;57.10;;;;;;4974704;28;20030;-82
2022/06/11 00:17:06;;;;;;;4.47;1.92;;;22.60;57.10;;;;;;4976250;28;20098;-82
2022/06/11 00:19:32;;;;;;;2.92;1.70;;;22.60;57.10;;;;;;4979174;28;20022;-81
2022/06/11 00:21:58;;;;;;;3.00;1.88;;;22.60;57.10;;;;;;4983213;28;20041;-81
2022/06/11 00:24:27;;;;;;;3.95;1.80;;;22.60;57.20;;;;;;4984510;28;20034;-83
2022/06/11 00:26:55;;;;;;;3.90;1.63;;;22.60;57.30;;;;;;4977737;28;20558;-82
2022/06/11 00:29:25;;;;;;;4.25;1.80;;;22.60;57.30;;;;;;4974312;28;20035;-82
2022/06/11 00:31:51;;;;;;;4.65;1.90;;;22.60;57.30;;;;;;4975283;28;20488;-81
2022/06/11 00:34:18;;;;;;;3.10;1.80;;;22.60;57.20;;;;;;4975463;28;20027;-82
2022/06/11 00:36:44;;;;;;;4.05;1.80;;;22.60;57.10;;;;;;4974902;28;20049;-81
2022/06/11 00:39:12;;;;;;;4.55;2.00;;;22.60;57.20;;;;;;4975776;28;20125;-81
2022/06/11 00:41:41;;;;;;;4.25;1.92;;;22.50;57.10;;;;;;4975547;28;20500;-83
2022/06/11 00:44:07;;;;;;;4.03;1.70;;;22.50;57.30;;;;;;4975286;28;20023;-83
2022/06/11 00:46:42;;;;;;;3.55;2.05;;;22.50;57.30;;;;;;4975309;28;20023;-82
2022/06/11 00:49:32;;;;;;;4.57;1.80;;;22.50;57.30;;;;;;4975285;28;20110;-83
2022/06/11 00:52:19;;;;;;;3.42;1.70;;;22.40;57.30;;;;;;4975243;28;20057;-83
2022/06/11 00:55:13;;;;;;;4.88;2.15;;;22.40;57.30;;;;;;4975589;28;20031;-81
2022/06/11 00:57:45;;;;;;;3.38;1.65;;;22.40;57.40;;;;;;4977945;28;20114;-83
2022/06/11 01:00:20;;;;;;;4.53;2.10;;;22.40;57.50;;;;;;4977654;28;20026;-82
2022/06/11 01:02:48;;;;;;;5.90;2.10;;;22.40;57.50;;;;;;4975401;28;20537;-82
2022/06/11 01:05:20;;;;;;;7.70;1.92;;;22.40;57.50;;;;;;4975410;28;20555;-82
2022/06/11 01:07:52;;;;;;;5.65;2.20;;;22.40;57.50;;;;;;4975275;28;20448;-82
2022/06/11 01:10:39;;;;;;;4.30;1.85;;;22.40;57.50;;;;;;4975094;28;20030;-81
2022/06/11 01:13:21;;;;;;;5.43;2.00;;;22.40;57.40;;;;;;4975277;28;20030;-82
2022/06/11 01:15:55;;;;;;;3.28;1.80;;;22.40;57.30;;;;;;4975325;28;20033;-81
2022/06/11 01:18:40;;;;;;;4.80;2.00;;;22.40;57.20;;;;;;4975357;28;20033;-82
2022/06/11 01:21:39;;;;;;;3.42;1.88;;;22.40;57.60;;;;;;4975455;28;20050;-83
2022/06/11 01:24:29;;;;;;;2.67;1.70;;;22.40;57.10;;;;;;4962900;28;20117;-82
2022/06/11 01:27:13;;;;;;;3.97;1.95;;;22.40;57.10;;;;;;4985910;28;20026;-82
2022/06/11 01:29:51;;;;;;;5.50;2.03;;;22.40;57.00;;;;;;4978599;28;20117;-82
2022/06/11 01:32:45;;;;;;;3.70;2.00;;;22.40;57.30;;;;;;4975314;28;20030;-81
2022/06/11 01:35:54;;;;;;;3.17;1.80;;;22.40;57.20;;;;;;4970089;28;20074;-81
2022/06/11 01:38:25;;;;;;;3.22;2.10;;;22.40;57.30;;;;;;4971413;28;20487;-83
2022/06/11 01:41:24;;;;;;;2.88;1.95;;;22.30;57.20;;;;;;4976268;28;20049;-83
2022/06/11 01:43:55;;;;;;;3.50;1.83;;;22.30;57.00;;;;;;4977640;28;20074;-81
2022/06/11 01:46:28;;;;;;;4.90;1.80;;;22.30;57.10;;;;;;4978904;28;20101;-82
2022/06/11 01:49:00;;;;;;;;;;;22.20;57.20;;;;;;4981068;28;20030;-81
2022/06/11 01:51:59;;;;;;;3.83;2.03;;;22.20;57.30;;;;;;4984965;28;19906;-82
2022/06/11 01:54:28;;;;;;;6.30;1.98;;;22.20;57.30;;;;;;4980987;28;20089;-81
2022/06/11 01:56:56;;;;;;;4.38;2.15;;;22.20;57.70;;;;;;4979678;28;20019;-81
2022/06/11 01:59:40;;;;;;;5.35;1.70;;;22.20;57.40;;;;;;4979621;28;20078;-82
2022/06/11 02:02:23;;;;;;;4.53;1.80;;;22.10;57.40;;;;;;4979226;28;20035;-81
2022/06/11 02:04:58;;;;;;;3.03;1.85;;;22.10;57.70;;;;;;4979030;28;20030;-81
2022/06/11 02:07:50;;;;;;;4.60;2.05;;;22.10;57.80;;;;;;4979477;28;20031;-84
2022/06/11 02:10:23;;;;;;;5.63;2.35;;;22.10;57.80;;;;;;4979900;28;20118;-82
2022/06/11 02:12:58;;;;;;;5.73;2.00;;;22.10;58.00;;;;;;4980007;28;20388;-82
2022/06/11 02:15:30;;;;;;;2.47;1.65;;;22.10;57.90;;;;;;4978655;28;20027;-81
2022/06/11 02:18:03;;;;;;;2.63;1.83;;;22.10;57.90;;;;;;4979609;28;20042;-81
2022/06/11 02:20:38;;;;;;;3.88;1.85;;;22.10;57.90;;;;;;4982320;28;20055;-81
2022/06/11 02:23:26;;;;;;;4.15;2.42;;;22.10;57.90;;;;;;4979268;28;20035;-81
2022/06/11 02:25:59;;;;;;;4.80;1.95;;;22.10;57.90;;;;;;4978254;28;20038;-82
2022/06/11 02:28:30;;;;;;;3.38;1.90;;;22.10;57.90;;;;;;4976651;28;20027;-82
2022/06/11 02:30:59;;;;;;;5.18;1.90;;;22.10;58.00;;;;;;4960248;28;20038;-82
2022/06/11 02:33:25;;;;;;;4.90;2.15;;;22.00;58.20;;;;;;4976675;28;20023;-81
2022/06/11 02:35:56;;;;;;;6.03;2.00;;;22.00;58.20;;;;;;4978151;28;20101;-81
2022/06/11 02:38:25;;;;;;;5.43;1.95;;;22.00;58.30;;;;;;4977996;28;20094;-82
2022/06/11 02:41:02;;;;;;;3.05;1.70;;;21.90;58.30;;;;;;4977822;28;20039;-81
2022/06/11 02:43:29;;;;;;;4.88;1.95;;;21.90;58.50;;;;;;4977762;28;20038;-81
2022/06/11 02:45:55;;;;;;;3.20;1.98;;;21.90;58.50;;;;;;4978150;28;20413;-81
2022/06/11 02:48:22;;;;;;;3.63;1.92;;;21.90;58.50;;;;;;4977684;28;20112;-82
2022/06/11 02:50:47;;;;;;;4.40;1.80;;;21.80;58.70;;;;;;4977568;28;20037;-83
2022/06/11 02:53:15;;;;;;;6.88;2.25;;;21.80;58.80;;;;;;4977572;28;20022;-84
2022/06/11 02:55:42;;;;;;;4.68;2.63;;;21.80;59.00;;;;;;4977739;28;20532;-81
2022/06/11 02:58:09;;;;;;;4.25;1.80;;;21.70;59.20;;;;;;4978027;28;20110;-83
2022/06/11 03:00:39;;;;;;;4.68;1.90;;;21.70;59.10;;;;;;4975207;28;20437;-81
2022/06/11 03:03:07;;;;;;;6.22;1.80;;;21.70;59.30;;;;;;4977311;28;20087;-81
2022/06/11 03:05:35;;;;;;;3.35;1.75;;;21.60;59.50;;;;;;4977574;28;20504;-81
2022/06/11 03:08:03;;;;;;;3.72;1.83;;;21.60;59.60;;;;;;4976446;28;20031;-81
2022/06/11 03:10:30;;;;;;;5.38;2.33;;;21.60;59.50;;;;;;4977189;28;20023;-81
2022/06/11 03:12:56;;;;;;;2.15;1.60;;;21.60;59.50;;;;;;4977269;28;20035;-83
2022/06/11 03:15:24;;;;;;;3.33;1.90;;;21.70;59.50;;;;;;4977190;28;20046;-80
2022/06/11 03:17:51;;;;;;;5.25;2.13;;;21.70;59.60;;;;;;4977416;28;20101;-80
2022/06/11 03:20:19;;;;;;;4.30;2.03;;;21.70;59.70;;;;;;4977444;28;20078;-81
2022/06/11 03:22:45;;;;;;;5.18;2.08;;;21.60;59.60;;;;;;4976657;28;20492;-81
2022/06/11 03:25:12;;;;;;;4.28;2.22;;;21.60;59.60;;;;;;4978127;28;20069;-81
2022/06/11 03:27:39;;;;;;;3.58;1.98;;;21.60;59.70;;;;;;4977895;28;20333;-81
2022/06/11 03:30:07;;;;;;;4.43;1.95;;;21.60;59.70;;;;;;4977154;28;20033;-81
2022/06/11 03:32:34;;;;;;;3.38;1.85;;;21.70;59.70;;;;;;4975828;28;20031;-81
2022/06/11 03:35:01;;;;;;;6.03;1.92;;;21.70;59.90;;;;;;4982382;28;20081;-81
2022/06/11 03:37:27;;;;;;;4.57;2.10;;;21.70;59.40;;;;;;4983820;28;20027;-80
2022/06/11 03:39:52;;;;;;;3.58;2.00;;;21.70;59.50;;;;;;4985021;28;20037;-81
2022/06/11 03:42:18;;;;;;;4.03;1.98;;;21.70;59.70;;;;;;4984590;28;20066;-81
2022/06/11 03:44:44;;;;;;;4.53;2.20;;;21.70;59.60;;;;;;4981197;28;20031;-82
2022/06/11 03:47:11;;;;;;;7.30;2.13;;;21.70;59.80;;;;;;4978413;28;20053;-83
2022/06/11 03:49:37;;;;;;;3.30;1.90;;;21.70;59.80;;;;;;4978732;28;20027;-82
2022/06/11 03:52:05;;;;;;;5.28;1.90;;;21.70;59.60;;;;;;4978943;28;20078;-82
2022/06/11 03:54:31;;;;;;;6.78;2.08;;;21.70;59.80;;;;;;4993442;28;20082;-81
2022/06/11 03:56:57;;;;;;;4.20;2.05;;;21.70;59.70;;;;;;4995773;28;20031;-81
2022/06/11 03:59:23;;;;;;;3.08;1.80;;;21.70;60.00;;;;;;4986290;28;20033;-82
2022/06/11 04:01:50;;;;;;;4.95;2.10;;;21.70;60.00;;;;;;4981435;28;20026;-82
2022/06/11 04:04:19;;;;;;;7.22;2.35;;;21.70;60.00;;;;;;4982386;28;20026;-82
2022/06/11 04:06:54;;;;;;;4.60;2.35;;;21.70;59.90;;;;;;4981700;28;20118;-82
2022/06/11 04:09:30;;;;;;;4.60;2.15;;;21.70;60.10;;;;;;4976012;28;20101;-81
2022/06/11 04:11:56;;;;;;;3.92;1.92;;;21.70;60.20;;;;;;4975048;28;20153;-81
2022/06/11 04:14:22;;;;;;;3.42;2.10;;;21.70;60.20;;;;;;4975961;28;20033;-83
2022/06/11 04:16:50;;;;;;;4.28;1.83;;;21.80;60.10;;;;;;4975701;28;20442;-82
2022/06/11 04:19:21;;;;;;;5.47;2.22;;;21.80;60.00;;;;;;4974583;28;20381;-81
2022/06/11 04:21:47;;;;;;;4.78;2.10;;;21.80;59.90;;;;;;4975886;28;20047;-80
2022/06/11 04:24:14;;;;;;;4.38;2.25;;;21.80;60.30;;;;;;4976453;28;20094;-81
2022/06/11 04:26:44;;;;;;;10.18;5.07;;;21.80;60.20;;;;;;4976110;28;20106;-81
2022/06/11 04:29:13;;;;;;;5.63;2.20;;;21.80;60.70;;;;;;4974920;28;20094;-80
2022/06/11 04:31:39;;;;;;;7.40;2.58;;;21.90;60.10;;;;;;4975995;28;20105;-80
2022/06/11 04:34:06;;;;;;;7.13;2.30;;;21.90;60.10;;;;;;4975691;28;20027;-81
2022/06/11 04:36:34;;;;;;;4.70;2.10;;;21.90;60.00;;;;;;4976027;28;20018;-80
2022/06/11 04:39:00;;;;;;;4.50;2.20;;;21.90;60.10;;;;;;4975975;28;20113;-81
2022/06/11 04:41:27;;;;;;;4.38;1.90;;;21.90;59.90;;;;;;4976130;28;20115;-82
2022/06/11 04:43:53;;;;;;;4.78;2.20;;;22.00;60.10;;;;;;4976028;28;20042;-81
2022/06/11 04:46:20;;;;;;;4.05;2.25;;;22.00;59.90;;;;;;4975919;28;20026;-81
2022/06/11 04:48:46;;;;;;;4.80;2.13;;;22.00;59.80;;;;;;4976253;28;20038;-81
2022/06/11 04:51:13;;;;;;;6.40;2.20;;;22.00;59.80;;;;;;4977357;28;20023;-81
2022/06/11 04:53:39;;;;;;;3.67;1.77;;;22.10;60.10;;;;;;4975748;28;20385;-82
2022/06/11 04:56:06;;;;;;;11.70;2.25;;;22.10;60.00;;;;;;4975373;28;20502;-82
2022/06/11 04:58:32;;;;;;;6.63;2.15;;;22.10;60.00;;;;;;4975570;28;20030;-82
2022/06/11 05:00:58;;;;;;;5.53;2.33;;;22.10;60.00;;;;;;4975550;28;20490;-81
2022/06/11 05:03:23;;;;;;;8.95;2.20;;;22.10;60.00;;;;;;4975832;28;20039;-82
2022/06/11 05:05:50;;;;;;;4.03;2.08;;;22.10;60.00;;;;;;4975909;28;20038;-83
2022/06/11 05:08:17;;;;;;;7.00;2.30;;;22.20;59.80;;;;;;4976095;28;20038;-79
2022/06/11 05:10:44;;;;;;;6.00;2.40;;;22.20;59.80;;;;;;4975755;28;20119;-81
2022/06/11 05:13:11;;;;;;;8.90;2.33;;;22.30;59.80;;;;;;4976293;28;20031;-80
2022/06/11 05:15:47;;;;;;;4.53;2.17;;;22.50;59.50;;;;;;4975898;28;20069;-81
2022/06/11 05:18:14;;;;;;;5.28;2.10;;;22.60;59.10;;;;;;4976281;28;20031;-80
2022/06/11 05:20:41;;;;;;;3.92;2.25;;;22.90;59.10;;;;;;4976013;28;20057;-82
2022/06/11 05:23:07;;;;;;;5.53;2.10;;;23.10;58.30;;;;;;4975639;28;20031;-79
2022/06/11 05:25:34;;;;;;;5.38;2.47;;;23.50;57.80;;;;;;4976365;28;20472;-80
2022/06/11 05:28:00;;;;;;;6.05;2.30;;;23.90;57.20;;;;;;4976016;28;20031;-80
2022/06/11 05:30:29;;;;;;;8.93;2.35;;;24.30;56.60;;;;;;4990389;28;20037;-80
2022/06/11 05:32:56;;;;;;;10.60;2.58;;;24.50;55.80;;;;;;4993025;28;20036;-80
2022/06/11 05:35:25;;;;;;;4.30;2.00;;;24.60;55.50;;;;;;4993651;28;20030;-81
2022/06/11 05:37:53;;;;;;;4.72;2.22;;;24.90;55.40;;;;;;4980778;28;20027;-81
2022/06/11 05:40:22;;;;;;;4.72;2.20;;;25.00;55.00;;;;;;4976297;28;20031;-82
2022/06/11 05:42:48;;;;;;;10.93;2.70;;;25.30;54.40;;;;;;4977231;28;20041;-81
2022/06/11 05:45:20;;;;;;;7.90;2.70;;;25.60;53.70;;;;;;4986608;28;20033;-80
2022/06/11 05:47:49;;;;;;;3.70;2.25;;;25.80;53.30;;;;;;4982814;28;20521;-82
2022/06/11 05:50:18;;;;;;;5.55;2.40;;;25.90;53.10;;;;;;4975020;28;20031;-82
2022/06/11 05:52:45;;;;;;;6.10;2.35;;;26.00;52.80;;;;;;4975084;28;20042;-82
2022/06/11 05:55:26;;;;;;;5.20;2.85;;;26.20;52.40;;;;;;4974574;28;20038;-81
2022/06/11 05:57:54;;;;;;;6.53;2.30;;;26.50;52.10;;;;;;4974624;28;20030;-79
2022/06/11 06:00:23;;;;;;;6.55;2.33;;;26.40;51.60;;;;;;4974301;28;20031;-81
2022/06/11 06:02:49;;;;;;;6.90;2.22;;;26.40;51.60;;;;;;4974225;28;20031;-81
2022/06/11 06:05:19;;;;;;;5.18;2.65;;;26.50;50.80;;;;;;4974154;28;20034;-81
2022/06/11 06:07:44;;;;;;;4.90;2.22;;;26.60;51.40;;;;;;4973283;28;20338;-81
2022/06/11 06:10:10;;;;;;;5.38;2.50;;;26.70;50.70;;;;;;4973920;28;20034;-81
2022/06/11 06:12:37;;;;;;;5.47;2.45;;;26.80;50.80;;;;;;4973926;28;20037;-82
2022/06/11 06:15:14;;;;;;;5.28;2.45;;;26.80;50.40;;;;;;4973939;28;20023;-81
2022/06/11 06:17:40;;;;;;;10.50;6.72;;;26.90;48.90;;;;;;4973722;28;20145;-81
2022/06/11 06:20:10;;;;;;;3.90;2.28;;;27.10;50.20;;;;;;4973810;28;20564;-80
2022/06/11 06:22:36;;;;;;;6.22;2.25;;;27.10;49.50;;;;;;4974414;28;20035;-81
2022/06/11 06:25:02;;;;;;;7.63;2.00;;;27.20;49.50;;;;;;4973999;28;20037;-81
2022/06/11 06:27:28;;;;;;;4.45;2.22;;;27.30;49.60;;;;;;4975537;28;20051;-81
2022/06/11 06:29:53;;;;;;;4.38;2.17;;;27.40;49.50;;;;;;4974048;28;20072;-83
2022/06/11 06:32:20;;;;;;;6.22;2.40;;;27.50;49.30;;;;;;4975538;28;20541;-81
2022/06/11 06:34:46;;;;;;;6.07;2.20;;;27.40;48.60;;;;;;4974008;28;20031;-80
2022/06/11 06:37:12;;;;;;;4.25;2.30;;;27.40;48.90;;;;;;4977305;28;20113;-81
2022/06/11 06:39:38;;;;;;;5.60;2.33;;;27.30;49.40;;;;;;4978000;28;20081;-82
2022/06/11 06:42:06;;;;;;;6.70;2.20;;;27.40;49.10;;;;;;4977778;28;20126;-82
2022/06/11 06:44:32;;;;;;;7.10;2.25;;;27.40;48.90;;;;;;4977900;28;20505;-83
2022/06/11 06:46:58;;;;;;;7.20;2.45;;;27.50;49.20;;;;;;4978071;28;20023;-80
2022/06/11 06:49:24;;;;;;;6.65;2.40;;;27.50;48.90;;;;;;4978234;28;20038;-80
2022/06/11 06:51:50;;;;;;;6.18;2.60;;;27.70;49.00;;;;;;4977435;28;20007;-81
2022/06/11 06:54:16;;;;;;;4.45;2.13;;;27.90;48.50;;;;;;4977749;28;20034;-80
2022/06/11 06:56:44;;;;;;;6.93;2.15;;;27.90;48.80;;;;;;4977365;28;20034;-80
2022/06/11 06:59:10;;;;;;;8.68;3.08;;;28.10;48.70;;;;;;4976918;28;20037;-80
2022/06/11 07:01:37;;;;;;;6.70;2.85;;;28.20;48.20;;;;;;4977475;28;20023;-85
2022/06/11 07:04:04;;;;;;;6.95;2.65;;;28.30;48.60;;;;;;4978136;28;20031;-81
2022/06/11 07:06:32;;;;;;;5.70;2.20;;;28.40;47.60;;;;;;4977438;28;20031;-78
2022/06/11 07:08:58;;;;;;;5.22;2.33;;;28.40;47.70;;;;;;4977223;28;20041;-82
2022/06/11 07:11:26;;;;;;;8.18;2.42;;;28.40;47.60;;;;;;4977261;28;20113;-83
2022/06/11 07:13:53;;;;;;;6.75;2.30;;;28.40;48.10;;;;;;4977794;28;20038;-78
2022/06/11 07:16:28;;;;;;;5.30;2.20;;;28.40;48.10;;;;;;4977605;28;20027;-80
2022/06/11 07:18:58;;;;;;;4.65;2.20;;;28.60;48.40;;;;;;4978037;28;20057;-80
2022/06/11 07:21:29;;;;;;;6.70;3.38;;;28.60;47.50;;;;;;4976786;28;20480;-79
2022/06/11 07:24:02;;;;;;;6.15;2.47;;;28.60;47.90;;;;;;4976901;28;20034;-80
2022/06/11 07:26:34;;;;;;;4.90;2.25;;;28.70;47.90;;;;;;4977079;28;20085;-81
2022/06/11 07:29:23;;;;;;;6.53;2.38;;;28.50;48.00;;;;;;4975464;28;20026;-79
2022/06/11 07:31:52;;;;;;;8.07;2.65;;;28.50;46.20;;;;;;4976892;28;20054;-79
2022/06/11 07:34:19;;;;;;;10.43;2.40;;;28.60;47.90;;;;;;4976410;28;20061;-78
2022/06/11 07:36:45;;;;;;;6.20;2.67;;;28.60;48.00;;;;;;4976821;28;20023;-80
2022/06/11 07:39:11;;;;;;;4.68;2.22;;;28.60;46.30;;;;;;4976481;28;20039;-79
2022/06/11 07:41:37;;;;;;;4.28;2.05;;;28.70;46.20;;;;;;4976373;28;20027;-79
2022/06/11 07:44:03;;;;;;;6.07;2.17;;;28.60;45.30;;;;;;4976782;28;20042;-79
2022/06/11 07:46:29;;;;;;;4.35;2.20;;;28.60;45.10;;;;;;4976814;28;20018;-77
2022/06/11 07:48:54;;;;;;;7.38;2.42;;;28.60;45.10;;;;;;4976491;28;20034;-78
2022/06/11 07:51:20;;;;;;;6.32;2.42;;;28.60;45.60;;;;;;4976228;28;20033;-79
2022/06/11 07:53:48;;;;;;;4.82;2.10;;;28.70;45.30;;;;;;4976683;28;20027;-77
2022/06/11 07:56:15;;;;;;;8.77;2.22;;;28.80;45.40;;;;;;4976960;28;20071;-79
2022/06/11 07:58:41;;;;;;;4.65;2.65;;;28.80;45.40;;;;;;4975236;28;20030;-80
2022/06/11 08:01:07;;;;;;;6.35;2.33;;;28.70;45.00;;;;;;4976817;28;20077;-79
2022/06/11 08:03:34;;;;;;;4.35;2.20;;;28.70;45.30;;;;;;4976453;28;20110;-78
2022/06/11 08:06:02;;;;;;;6.45;3.40;;;28.70;45.20;;;;;;4976185;28;20027;-79
2022/06/11 08:08:28;;;;;;;7.13;2.53;;;28.90;44.80;;;;;;4976301;28;20206;-75
2022/06/11 08:10:55;;;;;;;7.80;2.80;;;29.10;45.50;;;;;;4976367;28;20031;-88
2022/06/11 08:13:21;;;;;;;5.68;2.67;;;29.10;44.90;;;;;;4977441;28;20059;-80
2022/06/11 08:15:49;;;;;;;7.68;2.45;;;29.10;44.70;;;;;;4977197;28;20022;-80
2022/06/11 08:18:17;;;;;;;4.20;2.33;;;29.20;45.00;;;;;;4976066;28;20099;-79
2022/06/11 08:20:43;;;;;;;6.95;2.50;;;29.10;44.70;;;;;;4975267;28;20054;-80
2022/06/11 08:23:10;;;;;;;4.88;2.60;;;29.10;44.70;;;;;;4975303;28;20437;-78
2022/06/11 08:25:36;;;;;;;5.22;2.22;;;29.10;44.90;;;;;;4975221;28;20026;-75
2022/06/11 08:28:03;;;;;;;8.20;2.30;;;29.00;44.90;;;;;;4975205;28;20050;-78
2022/06/11 08:30:31;;;;;;;4.28;2.17;;;29.10;44.70;;;;;;4976133;28;20023;-74
2022/06/11 08:32:58;;;;;;;5.60;2.20;;;29.00;44.80;;;;;;4973942;28;20023;-78
2022/06/11 08:35:28;;;;;;;6.55;2.72;;;29.00;44.70;;;;;;4976560;28;20030;-76
2022/06/11 08:37:54;;;;;;;5.40;2.22;;;29.00;44.80;;;;;;4976451;28;20050;-78
2022/06/11 08:40:40;;;;;;;8.68;2.58;;;29.10;44.60;;;;;;4975820;28;20097;-81
2022/06/11 08:43:22;;;;;;;11.35;2.50;;;29.10;44.80;;;;;;4975077;28;20050;-79
2022/06/11 08:46:01;;;;;;;7.63;2.63;;;29.00;44.40;;;;;;4975542;28;20027;-77
2022/06/11 08:48:46;;;;;;;5.28;2.30;;;29.00;43.80;;;;;;4973969;28;20039;-77
2022/06/11 08:51:46;;;;;;;9.90;3.30;;;29.00;43.40;;;;;;4975048;28;20047;-81
2022/06/11 08:54:18;;;;;;;11.00;5.88;;;29.00;43.60;;;;;;4975075;28;20468;-78
2022/06/11 08:57:06;;;;;;;11.65;3.42;;;29.10;45.60;;;;;;4975778;28;20097;-79
2022/06/11 08:59:44;;;;;;;4.68;2.42;;;29.20;43.50;;;;;;4974883;28;20037;-76
2022/06/11 09:02:18;;;;;;;4.57;2.33;;;29.10;43.20;;;;;;4975014;28;20038;-76
2022/06/11 09:05:07;;;;;;;4.88;2.53;;;29.10;42.90;;;;;;4975165;28;20045;-76
2022/06/11 09:08:07;;;;;;;5.70;2.40;;;29.10;44.40;;;;;;4975842;28;20027;-78
2022/06/11 09:10:50;;;;;;;5.05;2.35;;;29.10;43.60;;;;;;4975122;28;20446;-76
2022/06/11 09:13:40;;;;;;;4.60;2.22;;;29.10;43.00;;;;;;4975263;28;20073;-74
2022/06/11 09:16:14;;;;;;;8.07;2.30;;;29.20;42.90;;;;;;4975419;28;20038;-81
2022/06/11 09:19:09;;;;;;;5.65;2.33;;;29.10;42.70;;;;;;4975654;28;20033;-77
2022/06/11 09:21:47;;;;;;;6.32;2.67;;;29.20;42.30;;;;;;4975582;28;20042;-79
2022/06/11 09:24:41;;;;;;;5.60;2.65;;;29.20;42.70;;;;;;4975485;28;20074;-76
2022/06/11 09:27:06;;;;;;;4.97;2.58;;;29.20;42.20;;;;;;4974919;28;20058;-74
2022/06/11 09:29:41;;;;;;;5.55;2.28;;;29.30;42.70;;;;;;4974940;28;20043;-78
2022/06/11 09:32:14;;;;;;;9.02;2.53;;;29.30;42.20;;;;;;4975851;28;20388;-80
2022/06/11 09:35:01;;;;;;;6.32;2.20;;;29.30;42.40;;;;;;4977719;28;20037;-79
2022/06/11 09:37:35;;;;;;;8.00;2.65;;;29.40;42.30;;;;;;4981757;28;20034;-81
2022/06/11 09:40:23;;;;;;;7.10;2.40;;;29.40;44.50;;;;;;4987165;28;20023;-77
2022/06/11 09:43:22;;;;;;;4.95;2.00;;;29.40;42.00;;;;;;4987137;28;20049;-81
2022/06/11 09:46:20;;;;;;;4.50;1.73;;;29.40;41.80;;;;;;4979570;28;20027;-79
2022/06/11 09:49:13;;;;;;;6.93;2.28;;;29.30;43.40;;;;;;4958081;28;20364;-77
2022/06/11 09:51:56;;;;;;;7.38;2.13;;;29.40;41.50;;;;;;4974234;28;20031;-77
2022/06/11 09:54:41;;;;;;;3.95;1.98;;;29.40;41.40;;;;;;4973809;28;20366;-75
2022/06/11 09:57:26;;;;;;;7.40;2.70;;;29.40;41.20;;;;;;4974390;28;20023;-76
2022/06/11 09:59:57;;;;;;;9.18;2.40;;;29.50;43.10;;;;;;4973746;28;20412;-77
2022/06/11 10:05:26;;;;;;;5.30;2.40;;;29.60;42.90;;;;;;4974189;28;20031;-78
2022/06/11 10:08:01;;;;;;;15.98;3.05;;;29.60;42.10;;;;;;4974042;28;20338;-69
2022/06/11 10:10:31;;;;;;;10.43;2.72;;;29.60;41.60;;;;;;4975053;28;20100;-68
2022/06/11 10:13:16;;;;;;;8.23;2.17;;;29.70;43.80;;;;;;4977509;28;20027;-78
2022/06/11 10:15:46;;;;;;;6.10;2.85;;;29.70;41.60;;;;;;4977578;28;20027;-69
2022/06/11 10:18:30;;;;;;;5.05;2.42;;;29.70;41.80;;;;;;4977349;28;20166;-69
2022/06/11 10:21:12;;;;;;;14.68;2.85;;;29.80;41.40;;;;;;4976838;28;20129;-71
2022/06/11 10:24:10;;;;;;;6.30;2.88;;;29.80;44.10;;;;;;4977173;28;20065;-68
2022/06/11 10:26:42;;;;;;;9.48;2.47;;;29.90;44.00;;;;;;4977135;28;20034;-67
2022/06/11 10:29:24;;;;;;;4.60;2.20;;;30.00;43.30;;;;;;4976777;28;20035;-67
2022/06/11 10:32:00;;;;;;;5.82;2.58;;;30.00;42.80;;;;;;4972055;28;20174;-68
2022/06/11 10:34:28;;;;;;;5.80;2.92;;;30.00;41.70;;;;;;4971565;28;20031;-67
2022/06/11 10:37:08;;;;;;;8.60;3.17;;;30.10;43.20;;;;;;4977148;28;20106;-67
2022/06/11 10:39:49;;;;;;;7.45;2.67;;;30.10;41.60;;;;;;4977321;28;20483;-71
2022/06/11 10:42:24;;;;;;;4.00;2.20;;;30.10;41.40;;;;;;4977455;28;20484;-70
2022/06/11 10:44:54;;;;;;;4.97;2.30;;;30.00;41.50;;;;;;4977364;28;20494;-77
2022/06/11 10:47:35;;;;;;;4.15;2.20;;;30.00;42.90;;;;;;4977271;28;20027;-74
2022/06/11 10:50:16;;;;;;;8.35;2.55;;;30.00;43.30;;;;;;4977115;28;20046;-77
2022/06/11 10:53:04;;;;;;;8.13;2.55;;;30.10;41.20;;;;;;4977052;28;20019;-70
2022/06/11 10:55:33;;;;;;;6.57;2.58;;;30.10;41.10;;;;;;4977191;28;20080;-70
2022/06/11 10:58:15;;;;;;;6.65;2.70;;;30.20;41.60;;;;;;4976839;28;20030;-73
2022/06/11 11:00:50;;;;;;;5.75;2.70;;;30.30;41.30;;;;;;4976856;28;20089;-70
2022/06/11 11:03:24;;;;;;;7.20;2.45;;;30.40;42.80;;;;;;4976616;28;20142;-72
2022/06/11 11:06:14;;;;;;;5.50;2.60;;;30.50;42.60;;;;;;4976695;28;20461;-69
2022/06/11 11:08:57;;;;;;;6.43;2.65;;;30.60;41.00;;;;;;4964882;28;20412;-73
2022/06/11 11:11:25;;;;;;;7.95;3.08;;;30.50;41.00;;;;;;4975900;28;20062;-71
2022/06/11 11:13:59;;;;;;;4.55;2.50;;;30.60;41.50;;;;;;4976502;28;20081;-70
2022/06/11 11:16:29;;;;;;;5.78;2.30;;;30.60;40.90;;;;;;4976497;28;20027;-68
2022/06/11 11:19:28;;;;;;;7.65;2.33;;;30.70;40.30;;;;;;4976507;28;20480;-69
2022/06/11 11:21:57;;;;;;;6.85;3.00;;;30.80;40.40;;;;;;4973163;28;20154;-76
2022/06/11 11:24:34;;;;;;;9.77;5.68;;;30.90;39.90;;;;;;4964566;28;20034;-76
2022/06/11 11:27:16;;;;;;;9.02;3.58;;;30.90;40.70;;;;;;4957683;28;20030;-80
2022/06/11 11:30:23;;;;;;;5.85;2.75;;;30.90;40.80;;;;;;4977114;28;20068;-77
2022/06/11 11:32:48;;;;;;;8.43;2.85;;;30.90;40.50;;;;;;4970933;28;20038;-71
2022/06/11 11:35:14;;;;;;;5.57;2.90;;;30.90;40.10;;;;;;4976671;28;20101;-77
2022/06/11 11:37:40;;;;;;;5.03;2.50;;;31.00;40.00;;;;;;4978027;28;20262;-71
2022/06/11 11:40:31;;;;;;;4.88;2.75;;;31.10;39.80;;;;;;4976704;28;20395;-71
2022/06/11 11:43:01;;;;;;;4.85;2.88;;;31.20;40.10;;;;;;4976664;28;20031;-76
2022/06/11 11:45:59;;;;;;;6.90;2.97;;;31.20;38.80;;;;;;4976266;28;20034;-71
2022/06/11 11:48:33;;;;;;;7.35;2.70;;;31.20;39.20;;;;;;4976438;28;20461;-74
2022/06/11 11:51:06;;;;;;;4.90;2.33;;;31.20;39.80;;;;;;4976365;28;20077;-79
2022/06/11 11:53:47;;;;;;;5.05;2.75;;;31.20;39.50;;;;;;4974876;28;20023;-72
2022/06/11 11:56:48;;;;;;;4.57;2.50;;;31.20;38.50;;;;;;4973839;28;20114;-67
2022/06/11 11:59:28;;;;;;;5.97;2.53;;;31.20;39.00;;;;;;4956527;28;20358;-66
2022/06/11 12:02:03;;;;;;;5.88;2.38;;;31.30;38.50;;;;;;4955485;28;20031;-71
2022/06/11 12:04:35;;;;;;;3.53;2.17;;;31.40;38.20;;;;;;4956353;28;20050;-71
2022/06/11 12:07:11;;;;;;;2.90;1.83;;;31.50;38.00;;;;;;4956306;28;20490;-75
2022/06/11 12:09:48;;;;;;;5.97;2.53;;;31.60;38.20;;;;;;4956377;28;20070;-78
2022/06/11 12:12:20;;;;;;;6.13;2.63;;;31.60;38.00;;;;;;4955995;28;20023;-74
2022/06/11 12:14:52;;;;;;;4.28;2.35;;;31.60;38.10;;;;;;4954642;28;20502;-73
2022/06/11 12:17:40;;;;;;;4.22;2.38;;;31.70;37.30;;;;;;4955750;28;20028;-70
2022/06/11 12:20:39;;;;;;;6.80;2.78;;;31.80;37.70;;;;;;4955692;28;20134;-72
2022/06/11 12:23:35;;;;;;;9.38;2.35;;;31.90;37.80;;;;;;4938478;29;20043;-71
2022/06/11 12:26:21;;;;;;;7.13;2.08;;;31.90;37.10;;;;;;4955776;28;20127;-73
2022/06/11 12:29:05;;;;;;;6.07;2.13;;;31.90;36.10;;;;;;4955707;28;20023;-71
2022/06/11 12:31:32;;;;;;;4.93;2.10;;;31.90;36.50;;;;;;4955460;28;20050;-71
2022/06/11 12:34:00;;;;;;;4.10;2.10;;;32.00;36.60;;;;;;4954976;28;20031;-71
2022/06/11 12:36:42;;;;;;;4.28;1.90;;;32.00;35.80;;;;;;4955238;28;20027;-71
2022/06/11 12:39:34;;;;;;;5.40;2.08;;;32.10;35.50;;;;;;4955341;28;20031;-69
2022/06/11 12:42:24;;;;;;;6.22;2.00;;;32.20;35.70;;;;;;4955420;28;20390;-75
2022/06/11 12:45:03;;;;;;;4.13;2.25;;;32.30;36.30;;;;;;4955088;28;20086;-72
2022/06/11 12:47:41;;;;;;;10.13;2.28;;;32.30;36.20;;;;;;4955346;28;20033;-72
2022/06/11 12:50:45;;;;;;;7.03;2.20;;;32.40;36.10;;;;;;4955223;28;20074;-73
2022/06/11 12:53:43;;;;;;;5.78;2.38;;;32.50;35.60;;;;;;4943064;28;20047;-74
2022/06/11 12:56:30;;;;;;;4.93;2.30;;;32.60;34.80;;;;;;4939062;28;20028;-73
2022/06/11 12:59:06;;;;;;;7.80;2.40;;;32.60;35.10;;;;;;4956154;28;20074;-76
2022/06/11 13:01:44;;;;;;;4.85;2.10;;;32.60;35.10;;;;;;4968787;28;20058;-76
2022/06/11 13:04:16;;;;;;;5.38;1.90;;;32.70;34.40;;;;;;4974778;28;20069;-74
2022/06/11 13:07:20;;;;;;;5.60;2.55;;;32.70;34.50;;;;;;4973529;28;20035;-76
2022/06/11 13:10:14;;;;;;;7.93;2.55;;;32.80;33.80;;;;;;4974690;28;20026;-75
2022/06/11 13:12:57;;;;;;;5.95;2.25;;;32.90;33.40;;;;;;4973992;28;20392;-75
2022/06/11 13:15:57;;;;;;;6.13;2.85;;;33.00;33.60;;;;;;4974986;28;20022;-75
2022/06/11 13:18:37;;;;;;;5.88;3.10;;;33.00;34.20;;;;;;4974613;28;20023;-75
2022/06/11 13:21:08;;;;;;;5.78;2.80;;;33.00;34.60;;;;;;4974298;28;20090;-75
2022/06/11 13:23:57;;;;;;;5.45;2.17;;;33.20;34.50;;;;;;4974594;28;20046;-75